Time;durP1;ratioP1;P1;durP2;ratioP2;P2;SDS_P1;SDS_P2;PMS_P1;PMS_P2;Temp;Humidity;BMP_temperature;BMP_pressure;BME280_temperature;BME280_humidity;BME280_pressure;Samples;Min_cycle;Max_cycle;Signal;HPM_P1;HPM_P2
2022/04/18 00:00:57;;;;;;;16.55;14.95;;;;;;;;;;5065763;28;24944;-50
2022/04/18 00:03:22;;;;;;;16.73;15.13;;;;;;;;;;5063957;28;24418;-50
2022/04/18 00:05:47;;;;;;;17.00;15.30;;;;;;;;;;5064858;28;24434;-50
2022/04/18 00:08:12;;;;;;;16.20;14.80;;;;;;;;;;5077073;28;24494;-49
2022/04/18 00:10:37;;;;;;;17.42;15.82;;;;;;;;;;5084256;28;24418;-50
2022/04/18 00:13:02;;;;;;;17.10;15.50;;;;;;;;;;5083785;28;24448;-50
2022/04/18 00:15:28;;;;;;;17.10;15.70;;;;;;;;;;5081728;28;24480;-50
2022/04/18 00:17:53;;;;;;;18.40;16.77;;;;;;;;;;5064338;28;24979;-50
2022/04/18 00:20:18;;;;;;;20.20;18.50;;;;;;;;;;5066751;28;24407;-50
2022/04/18 00:22:44;;;;;;;21.00;19.20;;;;;;;;;;5085970;28;24417;-51
2022/04/18 00:25:09;;;;;;;19.00;17.35;;;;;;;;;;5083591;28;24385;-50
2022/04/18 00:27:35;;;;;;;22.27;20.17;;;;;;;;;;5064351;28;24451;-50
2022/04/18 00:30:00;;;;;;;21.57;19.60;;;;;;;;;;5066046;28;24439;-49
2022/04/18 00:32:25;;;;;;;20.03;18.33;;;;;;;;;;5085938;28;24389;-49
2022/04/18 00:34:50;;;;;;;20.03;18.23;;;;;;;;;;5083800;28;24402;-50
2022/04/18 00:37:15;;;;;;;19.90;18.20;;;;;;;;;;5066883;28;24921;-49
2022/04/18 00:39:40;;;;;;;20.13;18.23;;;;;;;;;;5068964;28;24432;-50
2022/04/18 00:42:06;;;;;;;20.80;18.90;;;;;;;;;;5067181;28;24402;-50
2022/04/18 00:44:31;;;;;;;20.30;18.50;;;;;;;;;;5069424;28;24476;-49
2022/04/18 00:46:56;;;;;;;21.07;19.17;;;;;;;;;;5069179;28;24395;-51
2022/04/18 00:49:21;;;;;;;21.20;19.30;;;;;;;;;;5069439;28;24683;-52
2022/04/18 00:51:46;;;;;;;20.60;18.70;;;;;;;;;;5068764;28;24492;-50
2022/04/18 00:54:12;;;;;;;20.50;18.60;;;;;;;;;;5068833;28;24393;-50
2022/04/18 00:56:37;;;;;;;20.73;18.83;;;;;;;;;;5069010;28;24434;-50
2022/04/18 00:59:03;;;;;;;21.50;19.50;;;;;;;;;;5068973;28;24452;-50
2022/04/18 01:01:28;;;;;;;20.80;19.00;;;;;;;;;;5068994;28;24777;-51
2022/04/18 01:03:53;;;;;;;21.52;19.70;;;;;;;;;;5068497;28;24466;-49
2022/04/18 01:06:18;;;;;;;20.77;18.97;;;;;;;;;;5072962;28;24410;-50
2022/04/18 01:08:44;;;;;;;19.60;17.90;;;;;;;;;;5088952;28;24510;-50
2022/04/18 01:11:09;;;;;;;20.67;18.88;;;;;;;;;;5088807;28;24547;-49
2022/04/18 01:13:45;;;;;;;20.20;18.50;;;;;;;;;;5088964;28;24465;-49
2022/04/18 01:16:10;;;;;;;20.35;18.55;;;;;;;;;;5084962;28;24387;-49
2022/04/18 01:18:36;;;;;;;19.70;17.93;;;;;;;;;;5089089;28;24954;-50
2022/04/18 01:21:01;;;;;;;20.27;18.47;;;;;;;;;;5088372;28;24894;-50
2022/04/18 01:23:27;;;;;;;20.42;18.52;;;;;;;;;;5088644;28;24440;-50
2022/04/18 01:31:20;;;;;;;20.13;18.33;;;;;;;;;;5088358;28;25211;-50
2022/04/18 01:33:45;;;;;;;19.00;17.20;;;;;;;;;;5088379;28;24386;-50
2022/04/18 01:36:10;;;;;;;18.05;16.45;;;;;;;;;;5088667;28;24753;-50
2022/04/18 01:38:35;;;;;;;19.93;18.03;;;;;;;;;;5088572;28;24428;-50
2022/04/18 01:41:00;;;;;;;18.98;17.17;;;;;;;;;;5088473;28;24952;-49
2022/04/18 01:43:25;;;;;;;19.00;17.30;;;;;;;;;;5088272;28;24505;-49
2022/04/18 01:45:51;;;;;;;18.60;16.95;;;;;;;;;;5088111;28;24390;-50
2022/04/18 01:48:16;;;;;;;17.80;16.10;;;;;;;;;;5088136;28;24987;-50
2022/04/18 01:50:41;;;;;;;18.27;16.67;;;;;;;;;;5088163;28;24398;-50
2022/04/18 01:53:06;;;;;;;19.35;17.65;;;;;;;;;;5088107;28;24400;-50
2022/04/18 01:55:31;;;;;;;18.20;16.60;;;;;;;;;;5088240;28;24987;-50
2022/04/18 01:57:56;;;;;;;19.90;17.90;;;;;;;;;;5087980;28;24444;-50
2022/04/18 02:00:22;;;;;;;18.75;17.20;;;;;;;;;;5087990;28;24505;-50
2022/04/18 02:02:47;;;;;;;19.60;17.90;;;;;;;;;;5088048;28;24430;-50
2022/04/18 02:05:12;;;;;;;19.55;17.75;;;;;;;;;;5088047;28;24787;-50
2022/04/18 02:07:38;;;;;;;18.83;17.13;;;;;;;;;;5072772;28;24490;-50
2022/04/18 02:10:03;;;;;;;18.45;16.85;;;;;;;;;;5067505;28;24419;-50
2022/04/18 02:12:28;;;;;;;19.05;17.33;;;;;;;;;;5067513;28;24414;-50
2022/04/18 02:14:54;;;;;;;17.33;15.80;;;;;;;;;;5067291;28;24452;-50
2022/04/18 02:17:19;;;;;;;17.52;15.93;;;;;;;;;;5067549;28;24963;-50
2022/04/18 02:19:45;;;;;;;17.80;16.30;;;;;;;;;;5067102;28;24402;-50
2022/04/18 02:22:10;;;;;;;17.07;15.47;;;;;;;;;;5066955;28;24448;-50
2022/04/18 02:24:35;;;;;;;17.27;15.77;;;;;;;;;;5067659;28;24387;-51
2022/04/18 02:27:00;;;;;;;17.20;15.67;;;;;;;;;;5066895;28;24398;-50
2022/04/18 02:29:25;;;;;;;17.35;15.75;;;;;;;;;;5066791;28;24442;-50
2022/04/18 02:34:34;;;;;;;17.02;15.63;;;;;;;;;;5067413;28;24362;-51
2022/04/18 02:37:00;;;;;;;16.70;15.20;;;;;;;;;;5066950;28;24481;-50
2022/04/18 02:39:25;;;;;;;15.40;14.10;;;;;;;;;;5067077;28;24387;-50
2022/04/18 02:41:50;;;;;;;15.23;13.93;;;;;;;;;;5063605;28;25045;-50
2022/04/18 02:44:15;;;;;;;16.05;14.65;;;;;;;;;;5066747;28;24857;-50
2022/04/18 02:46:40;;;;;;;14.88;13.57;;;;;;;;;;5064939;28;24477;-50
2022/04/18 02:49:05;;;;;;;15.65;14.35;;;;;;;;;;5067209;28;24464;-50
2022/04/18 02:51:31;;;;;;;13.52;12.43;;;;;;;;;;5064434;28;24678;-50
2022/04/18 02:53:56;;;;;;;13.50;12.40;;;;;;;;;;5066701;28;24402;-51
2022/04/18 02:56:21;;;;;;;13.23;12.13;;;;;;;;;;5082625;28;24426;-50
2022/04/18 02:58:46;;;;;;;12.87;11.73;;;;;;;;;;5084502;28;24487;-51
2022/04/18 03:01:11;;;;;;;13.03;11.93;;;;;;;;;;5068967;28;24705;-50
2022/04/18 03:03:36;;;;;;;13.20;12.00;;;;;;;;;;5066522;28;24399;-50
2022/04/18 03:06:02;;;;;;;12.00;11.00;;;;;;;;;;5080261;28;24517;-50
2022/04/18 03:08:27;;;;;;;13.40;12.10;;;;;;;;;;5086656;28;24426;-51
2022/04/18 03:11:05;;;;;;;14.00;12.80;;;;;;;;;;5067418;28;24464;-50
2022/04/18 03:13:32;;;;;;;15.02;13.57;;;;;;;;;;5066620;28;24896;-50
2022/04/18 03:15:57;;;;;;;15.32;13.93;;;;;;;;;;5083112;28;24437;-51
2022/04/18 03:18:23;;;;;;;15.67;14.17;;;;;;;;;;5086869;28;24448;-50
2022/04/18 03:20:48;;;;;;;14.50;13.10;;;;;;;;;;5065221;28;25015;-51
2022/04/18 03:23:14;;;;;;;14.80;13.40;;;;;;;;;;5066126;28;24475;-51
2022/04/18 03:25:39;;;;;;;14.10;12.80;;;;;;;;;;5065805;28;24957;-50
2022/04/18 03:28:04;;;;;;;13.27;12.07;;;;;;;;;;5064172;28;24429;-50
2022/04/18 03:30:29;;;;;;;13.27;11.97;;;;;;;;;;5084087;28;24434;-50
2022/04/18 03:32:54;;;;;;;13.20;12.00;;;;;;;;;;5086153;28;24944;-50
2022/04/18 03:35:19;;;;;;;12.88;11.77;;;;;;;;;;5065236;28;24442;-51
2022/04/18 03:40:28;;;;;;;12.88;11.68;;;;;;;;;;5064759;28;24410;-50
2022/04/18 03:42:54;;;;;;;13.10;11.90;;;;;;;;;;5066408;28;24848;-50
2022/04/18 03:45:19;;;;;;;13.17;11.97;;;;;;;;;;5084528;28;24839;-49
2022/04/18 03:47:44;;;;;;;13.73;12.32;;;;;;;;;;5084457;28;24405;-50
2022/04/18 03:50:09;;;;;;;18.58;16.58;;;;;;;;;;5064594;28;24411;-50
2022/04/18 03:52:34;;;;;;;22.30;18.33;;;;;;;;;;5066669;28;24387;-50
2022/04/18 03:54:59;;;;;;;25.20;20.20;;;;;;;;;;5086189;28;24733;-50
2022/04/18 03:57:25;;;;;;;22.75;19.58;;;;;;;;;;5084715;28;24378;-50
2022/04/18 03:59:50;;;;;;;19.27;17.27;;;;;;;;;;5084371;28;24402;-49
2022/04/18 04:02:15;;;;;;;16.70;15.10;;;;;;;;;;5084553;28;24880;-50
2022/04/18 04:04:41;;;;;;;16.10;14.50;;;;;;;;;;5084555;28;24485;-49
2022/04/18 04:07:06;;;;;;;14.27;12.98;;;;;;;;;;5084415;28;24405;-50
2022/04/18 04:09:31;;;;;;;14.03;12.60;;;;;;;;;;5064547;28;24426;-49
2022/04/18 04:11:56;;;;;;;13.20;12.00;;;;;;;;;;5068514;28;25016;-49
2022/04/18 04:14:22;;;;;;;12.60;11.50;;;;;;;;;;5087889;28;24486;-50
2022/04/18 04:16:47;;;;;;;12.38;11.30;;;;;;;;;;5087892;28;25079;-50
2022/04/18 04:19:12;;;;;;;12.30;11.20;;;;;;;;;;5069905;28;24394;-50
2022/04/18 04:21:37;;;;;;;11.90;10.90;;;;;;;;;;5067621;28;24955;-50
2022/04/18 04:24:02;;;;;;;12.40;11.30;;;;;;;;;;5088093;28;24374;-50
2022/04/18 04:26:28;;;;;;;13.20;11.90;;;;;;;;;;5089186;28;24401;-52
2022/04/18 04:28:53;;;;;;;12.23;11.13;;;;;;;;;;5069299;28;24580;-50
2022/04/18 04:31:18;;;;;;;12.20;11.20;;;;;;;;;;5068998;28;24379;-51
2022/04/18 04:33:43;;;;;;;11.40;10.40;;;;;;;;;;5068907;28;24411;-50
2022/04/18 04:36:08;;;;;;;12.43;11.32;;;;;;;;;;5069285;28;24378;-51
2022/04/18 04:38:33;;;;;;;12.30;11.20;;;;;;;;;;5069352;28;25034;-51
2022/04/18 04:40:59;;;;;;;12.30;11.10;;;;;;;;;;5069368;28;24579;-51
2022/04/18 04:43:28;;;;;;;12.38;11.32;;;;;;;;;;5068917;28;24552;-50
2022/04/18 04:45:53;;;;;;;12.52;11.25;;;;;;;;;;5069248;28;24401;-50
2022/04/18 04:48:18;;;;;;;11.97;10.67;;;;;;;;;;5069086;28;24819;-50
2022/04/18 04:50:43;;;;;;;12.00;10.88;;;;;;;;;;5069215;28;24384;-50
2022/04/18 04:53:09;;;;;;;11.70;10.60;;;;;;;;;;5068756;28;24431;-51
2022/04/18 04:55:35;;;;;;;11.70;10.70;;;;;;;;;;5069009;28;24413;-51
2022/04/18 04:58:00;;;;;;;11.70;10.60;;;;;;;;;;5068672;28;24397;-51
2022/04/18 05:00:25;;;;;;;11.13;10.15;;;;;;;;;;5068888;28;24937;-51
2022/04/18 05:02:50;;;;;;;10.97;9.97;;;;;;;;;;5078419;28;24405;-51
2022/04/18 05:05:16;;;;;;;12.25;11.20;;;;;;;;;;5089499;28;24386;-50
2022/04/18 05:07:41;;;;;;;12.00;11.00;;;;;;;;;;5089088;28;24951;-50
2022/04/18 05:10:06;;;;;;;11.57;10.57;;;;;;;;;;5088724;28;24456;-51
2022/04/18 05:12:32;;;;;;;11.43;10.43;;;;;;;;;;5088584;28;24390;-50
2022/04/18 05:15:01;;;;;;;10.95;10.05;;;;;;;;;;5088955;28;24482;-50
2022/04/18 05:17:26;;;;;;;10.60;9.70;;;;;;;;;;5088805;28;24531;-51
2022/04/18 05:19:51;;;;;;;11.20;10.30;;;;;;;;;;5088866;28;25325;-51
2022/04/18 05:22:17;;;;;;;10.77;9.93;;;;;;;;;;5088219;28;24390;-51
2022/04/18 05:24:42;;;;;;;11.57;10.57;;;;;;;;;;5088664;28;24401;-50
2022/04/18 05:27:07;;;;;;;10.52;9.52;;;;;;;;;;5088668;28;24422;-50
2022/04/18 05:29:32;;;;;;;11.20;10.30;;;;;;;;;;5088430;28;24430;-50
2022/04/18 05:31:57;;;;;;;12.23;11.13;;;;;;;;;;5088547;28;24392;-50
2022/04/18 05:34:22;;;;;;;11.52;10.63;;;;;;;;;;5088615;28;24755;-50
2022/04/18 05:36:47;;;;;;;12.27;11.25;;;;;;;;;;5088394;28;24382;-49
2022/04/18 05:39:13;;;;;;;12.10;10.90;;;;;;;;;;5088307;28;24483;-50
2022/04/18 05:41:38;;;;;;;12.30;11.20;;;;;;;;;;5088330;28;24799;-50
2022/04/18 05:44:03;;;;;;;11.20;10.25;;;;;;;;;;5088015;28;24393;-50
2022/04/18 05:46:28;;;;;;;12.67;11.47;;;;;;;;;;5088298;28;24430;-50
2022/04/18 05:48:55;;;;;;;11.50;10.40;;;;;;;;;;5088454;28;24413;-50
2022/04/18 05:51:20;;;;;;;11.73;10.63;;;;;;;;;;5087926;28;24969;-49
2022/04/18 05:53:45;;;;;;;11.60;10.60;;;;;;;;;;5087862;28;24386;-50
2022/04/18 05:56:10;;;;;;;11.10;10.20;;;;;;;;;;5087898;28;24394;-50
2022/04/18 05:58:35;;;;;;;12.20;11.10;;;;;;;;;;5088064;28;24390;-50
2022/04/18 06:01:00;;;;;;;11.88;10.88;;;;;;;;;;5088397;28;24391;-50
2022/04/18 06:03:26;;;;;;;11.32;10.32;;;;;;;;;;5073000;28;24395;-50
2022/04/18 06:05:51;;;;;;;10.60;9.70;;;;;;;;;;5067751;28;24426;-49
2022/04/18 06:08:16;;;;;;;11.60;10.60;;;;;;;;;;5067362;28;24400;-50
2022/04/18 06:10:41;;;;;;;10.25;9.45;;;;;;;;;;5067511;28;24452;-49
2022/04/18 06:13:09;;;;;;;10.85;9.95;;;;;;;;;;5067482;28;24395;-50
2022/04/18 06:15:34;;;;;;;10.90;10.00;;;;;;;;;;5067642;28;24445;-50
2022/04/18 06:18:00;;;;;;;10.70;9.80;;;;;;;;;;5067279;28;24448;-50
2022/04/18 06:20:25;;;;;;;11.90;10.90;;;;;;;;;;5067304;28;24776;-50
2022/04/18 06:22:50;;;;;;;11.80;10.20;;;;;;;;;;5067007;28;24398;-51
2022/04/18 06:25:15;;;;;;;10.80;9.90;;;;;;;;;;5067496;28;24820;-50
2022/04/18 06:27:40;;;;;;;10.10;9.30;;;;;;;;;;5066764;28;24390;-50
2022/04/18 06:30:06;;;;;;;10.75;9.95;;;;;;;;;;5067259;28;24417;-50
2022/04/18 06:32:34;;;;;;;11.07;10.17;;;;;;;;;;5066190;28;24939;-50
2022/04/18 06:35:00;;;;;;;10.80;9.90;;;;;;;;;;5064869;28;24959;-50
2022/04/18 06:37:25;;;;;;;10.98;10.07;;;;;;;;;;5074598;28;24430;-50
2022/04/18 06:39:50;;;;;;;11.23;10.23;;;;;;;;;;5085591;28;24988;-49
2022/04/18 06:42:15;;;;;;;10.90;9.80;;;;;;;;;;5085160;28;24414;-49
2022/04/18 06:44:40;;;;;;;11.00;10.00;;;;;;;;;;5085728;28;25058;-50
2022/04/18 06:47:06;;;;;;;11.00;9.90;;;;;;;;;;5077746;28;24489;-49
2022/04/18 06:49:31;;;;;;;11.35;10.45;;;;;;;;;;5065039;28;25041;-50
2022/04/18 06:51:56;;;;;;;11.25;10.27;;;;;;;;;;5066344;28;24518;-50
2022/04/18 06:54:21;;;;;;;10.98;10.07;;;;;;;;;;5066175;28;24742;-51
2022/04/18 06:57:01;;;;;;;11.02;10.13;;;;;;;;;;5074481;28;24411;-50
2022/04/18 06:59:27;;;;;;;10.90;9.90;;;;;;;;;;5086895;28;25114;-50
2022/04/18 07:01:53;;;;;;;11.30;10.40;;;;;;;;;;5075370;28;24552;-50
2022/04/18 07:04:19;;;;;;;11.70;10.70;;;;;;;;;;5064915;28;24407;-51
2022/04/18 07:06:44;;;;;;;12.60;11.50;;;;;;;;;;5077131;28;24575;-51
2022/04/18 07:09:09;;;;;;;13.13;11.95;;;;;;;;;;5085210;28;24492;-51
2022/04/18 07:11:35;;;;;;;12.57;11.47;;;;;;;;;;5074881;28;24942;-51
2022/04/18 07:14:00;;;;;;;12.63;11.48;;;;;;;;;;5064792;28;24498;-51
2022/04/18 07:16:27;;;;;;;12.40;11.30;;;;;;;;;;5076637;28;24448;-51
2022/04/18 07:18:53;;;;;;;12.20;11.20;;;;;;;;;;5085160;28;24406;-51
2022/04/18 07:21:19;;;;;;;11.70;10.70;;;;;;;;;;5073903;28;24430;-51
2022/04/18 07:23:44;;;;;;;10.60;9.70;;;;;;;;;;5064764;28;24413;-50
2022/04/18 07:26:09;;;;;;;11.53;10.53;;;;;;;;;;5077503;28;24504;-51
2022/04/18 07:28:38;;;;;;;12.50;11.43;;;;;;;;;;5086004;28;24780;-51
2022/04/18 07:31:03;;;;;;;11.93;11.02;;;;;;;;;;5085304;28;24499;-50
2022/04/18 07:33:29;;;;;;;11.97;10.90;;;;;;;;;;5084482;28;24483;-50
2022/04/18 07:35:54;;;;;;;11.00;10.00;;;;;;;;;;5085510;28;24425;-51
2022/04/18 07:41:04;;;;;;;10.80;9.80;;;;;;;;;;5071157;28;24402;-51
2022/04/18 07:43:30;;;;;;;11.60;10.60;;;;;;;;;;5064478;28;24387;-50
2022/04/18 07:45:56;;;;;;;11.27;10.27;;;;;;;;;;5069026;28;24425;-51
2022/04/18 07:48:21;;;;;;;12.30;11.20;;;;;;;;;;5068451;28;24877;-50
2022/04/18 07:53:31;;;;;;;11.90;10.90;;;;;;;;;;5070012;28;24959;-50
2022/04/18 07:55:56;;;;;;;12.70;11.50;;;;;;;;;;5070428;28;24446;-50
2022/04/18 07:58:21;;;;;;;11.67;10.67;;;;;;;;;;5069705;28;25032;-56
2022/04/18 08:00:46;;;;;;;11.52;10.52;;;;;;;;;;5083079;28;24455;-51
2022/04/18 08:03:12;;;;;;;14.20;12.90;;;;;;;;;;5090204;28;24540;-50
2022/04/18 08:05:37;;;;;;;12.57;11.47;;;;;;;;;;5090058;28;24951;-50
2022/04/18 08:08:03;;;;;;;12.67;11.47;;;;;;;;;;5090280;28;24421;-50
2022/04/18 08:10:29;;;;;;;12.20;11.20;;;;;;;;;;5090171;28;24461;-49
2022/04/18 08:12:54;;;;;;;12.23;11.13;;;;;;;;;;5090032;28;24525;-50
2022/04/18 08:15:19;;;;;;;12.50;11.40;;;;;;;;;;5089829;28;24818;-50
2022/04/18 08:17:45;;;;;;;11.33;10.33;;;;;;;;;;5089754;28;24393;-50
2022/04/18 08:20:10;;;;;;;11.90;10.90;;;;;;;;;;5090046;28;24402;-51
2022/04/18 08:22:35;;;;;;;12.23;11.13;;;;;;;;;;5089562;28;24985;-51
2022/04/18 08:25:00;;;;;;;12.13;11.13;;;;;;;;;;5089766;28;24477;-51
2022/04/18 08:27:25;;;;;;;11.68;10.60;;;;;;;;;;5089791;28;24693;-50
2022/04/18 08:29:50;;;;;;;11.50;10.50;;;;;;;;;;5089721;28;24442;-50
2022/04/18 08:32:16;;;;;;;8.77;8.07;;;;;;;;;;5089748;28;24927;-50
2022/04/18 08:34:41;;;;;;;11.30;10.30;;;;;;;;;;5089267;28;24403;-50
2022/04/18 08:37:07;;;;;;;10.30;9.40;;;;;;;;;;5090144;28;24745;-50
2022/04/18 08:39:32;;;;;;;11.23;10.23;;;;;;;;;;5089627;28;24486;-51
2022/04/18 08:41:58;;;;;;;9.90;9.00;;;;;;;;;;5089454;28;24829;-51
2022/04/18 08:44:25;;;;;;;11.68;10.57;;;;;;;;;;5087480;28;24394;-51
2022/04/18 08:46:50;;;;;;;11.50;10.30;;;;;;;;;;5089293;28;24928;-51
2022/04/18 08:54:44;;;;;;;10.57;9.68;;;;;;;;;;5088993;28;24384;-51
2022/04/18 08:57:09;;;;;;;10.90;9.90;;;;;;;;;;5088156;28;24414;-51
2022/04/18 08:59:34;;;;;;;10.00;9.10;;;;;;;;;;5086340;28;24456;-50
2022/04/18 09:02:00;;;;;;;8.63;7.93;;;;;;;;;;5068994;28;24746;-50
2022/04/18 09:04:25;;;;;;;7.10;6.50;;;;;;;;;;5067303;28;24430;-50
2022/04/18 09:06:52;;;;;;;7.73;6.93;;;;;;;;;;5069242;28;24452;-50
2022/04/18 09:09:24;;;;;;;7.05;6.45;;;;;;;;;;5068955;28;24403;-51
2022/04/18 09:11:51;;;;;;;6.78;6.25;;;;;;;;;;5069085;28;24414;-50
2022/04/18 09:14:16;;;;;;;7.75;7.05;;;;;;;;;;5068590;28;24916;-50
2022/04/18 09:16:42;;;;;;;7.20;6.53;;;;;;;;;;5068702;28;24403;-50
2022/04/18 09:19:12;;;;;;;6.95;6.40;;;;;;;;;;5069017;28;24433;-49
2022/04/18 09:21:41;;;;;;;7.40;6.70;;;;;;;;;;5068595;28;24395;-49
2022/04/18 09:24:06;;;;;;;7.53;6.93;;;;;;;;;;5068537;28;24951;-50
2022/04/18 09:26:32;;;;;;;6.77;6.17;;;;;;;;;;5068248;28;24463;-51
2022/04/18 09:29:06;;;;;;;7.53;6.83;;;;;;;;;;5068282;28;24439;-50
2022/04/18 09:31:38;;;;;;;6.10;5.60;;;;;;;;;;5068593;28;24440;-50
2022/04/18 09:34:03;;;;;;;6.40;5.90;;;;;;;;;;5068064;28;24390;-50
2022/04/18 09:36:29;;;;;;;6.20;5.60;;;;;;;;;;5068598;28;24399;-51
2022/04/18 09:38:55;;;;;;;6.33;5.73;;;;;;;;;;5068412;28;24387;-50
2022/04/18 09:41:21;;;;;;;6.97;6.38;;;;;;;;;;5066940;28;24959;-51
2022/04/18 09:43:48;;;;;;;6.13;5.53;;;;;;;;;;5067696;28;24430;-51
2022/04/18 09:46:13;;;;;;;6.80;6.20;;;;;;;;;;5067718;28;24419;-51
2022/04/18 09:48:39;;;;;;;6.75;6.15;;;;;;;;;;5066248;28;24430;-51
2022/04/18 09:51:08;;;;;;;6.85;6.25;;;;;;;;;;5083246;28;24478;-51
2022/04/18 09:53:34;;;;;;;7.50;6.90;;;;;;;;;;5087846;28;24743;-50
2022/04/18 09:56:00;;;;;;;8.90;8.10;;;;;;;;;;5084725;28;24991;-50
2022/04/18 09:58:25;;;;;;;7.50;6.80;;;;;;;;;;5087894;28;24498;-50
2022/04/18 10:00:50;;;;;;;7.57;6.97;;;;;;;;;;5071038;28;25033;-50
2022/04/18 10:03:16;;;;;;;6.07;5.57;;;;;;;;;;5066234;28;24855;-50
2022/04/18 10:05:41;;;;;;;5.30;4.80;;;;;;;;;;5083104;28;25061;-50
2022/04/18 10:08:06;;;;;;;5.40;4.90;;;;;;;;;;5085573;28;24386;-50
2022/04/18 10:10:32;;;;;;;4.60;4.20;;;;;;;;;;5085873;28;25035;-50
2022/04/18 10:12:57;;;;;;;4.47;4.07;;;;;;;;;;5086007;28;25054;-50
2022/04/18 10:15:23;;;;;;;4.97;4.57;;;;;;;;;;5086427;28;24403;-50
2022/04/18 10:17:48;;;;;;;3.97;3.67;;;;;;;;;;5085954;28;25194;-50
2022/04/18 10:20:32;;;;;;;5.10;4.60;;;;;;;;;;5086546;28;24508;-50
2022/04/18 10:23:06;;;;;;;5.65;5.15;;;;;;;;;;5087217;28;24402;-50
2022/04/18 10:25:46;;;;;;;5.65;5.15;;;;;;;;;;5087523;28;24455;-51
2022/04/18 10:28:14;;;;;;;5.00;4.60;;;;;;;;;;5087224;28;24964;-51
2022/04/18 10:30:44;;;;;;;5.73;5.27;;;;;;;;;;5087221;28;25042;-51
2022/04/18 10:33:12;;;;;;;6.10;5.60;;;;;;;;;;5086972;28;24387;-50
2022/04/18 10:35:45;;;;;;;5.97;5.47;;;;;;;;;;5087096;28;24475;-51
2022/04/18 10:38:10;;;;;;;4.80;4.40;;;;;;;;;;5087540;28;24541;-51
2022/04/18 10:40:39;;;;;;;4.13;3.77;;;;;;;;;;5087101;28;24483;-51
2022/04/18 10:43:06;;;;;;;4.57;4.18;;;;;;;;;;5087114;28;24443;-51
2022/04/18 10:45:32;;;;;;;6.30;5.80;;;;;;;;;;5087312;28;24406;-51
2022/04/18 10:48:01;;;;;;;7.33;6.67;;;;;;;;;;5087227;28;24466;-50
2022/04/18 10:50:28;;;;;;;7.60;6.90;;;;;;;;;;5087368;28;24406;-49
2022/04/18 10:53:12;;;;;;;7.25;6.65;;;;;;;;;;5086870;28;24862;-50
2022/04/18 10:55:38;;;;;;;6.20;5.70;;;;;;;;;;5086631;28;24390;-50
2022/04/18 10:58:12;;;;;;;7.47;6.88;;;;;;;;;;5086766;28;24440;-51
2022/04/18 11:00:54;;;;;;;6.90;6.10;;;;;;;;;;5086604;28;25001;-51
2022/04/18 11:03:38;;;;;;;4.63;4.22;;;;;;;;;;5086889;28;24412;-51
2022/04/18 11:06:07;;;;;;;3.45;2.90;;;;;;;;;;5087045;28;24452;-50
2022/04/18 11:08:34;;;;;;;2.42;2.22;;;;;;;;;;5086798;28;24497;-50
2022/04/18 11:11:07;;;;;;;4.40;4.00;;;;;;;;;;5086710;28;24451;-50
2022/04/18 11:13:32;;;;;;;3.72;3.42;;;;;;;;;;5086626;28;24515;-50
2022/04/18 11:16:23;;;;;;;3.03;2.80;;;;;;;;;;5086669;28;24991;-50
2022/04/18 11:19:07;;;;;;;2.88;2.67;;;;;;;;;;5086186;28;24467;-50
2022/04/18 11:21:57;;;;;;;2.20;2.00;;;;;;;;;;5086335;28;24390;-50
2022/04/18 11:24:32;;;;;;;2.40;2.20;;;;;;;;;;5080894;28;24406;-50
2022/04/18 11:26:57;;;;;;;2.10;1.90;;;;;;;;;;5086319;28;24414;-50
2022/04/18 11:29:23;;;;;;;2.40;2.20;;;;;;;;;;5086384;28;24446;-50
2022/04/18 11:31:50;;;;;;;2.03;1.92;;;;;;;;;;5084837;28;24434;-50
2022/04/18 11:34:17;;;;;;;2.70;2.50;;;;;;;;;;5086635;28;24752;-51
2022/04/18 11:36:43;;;;;;;2.45;2.25;;;;;;;;;;5086209;28;24936;-50
2022/04/18 11:39:10;;;;;;;2.70;2.50;;;;;;;;;;5086711;28;24561;-50
2022/04/18 11:41:35;;;;;;;2.50;2.30;;;;;;;;;;5086491;28;24473;-49
2022/04/18 11:44:00;;;;;;;2.60;2.40;;;;;;;;;;5086136;28;24490;-50
2022/04/18 11:46:29;;;;;;;2.30;2.10;;;;;;;;;;5086783;28;24426;-50
2022/04/18 11:48:54;;;;;;;2.40;2.20;;;;;;;;;;5086012;28;24986;-50
2022/04/18 11:51:39;;;;;;;2.10;2.00;;;;;;;;;;5086453;28;24414;-50
2022/04/18 11:54:04;;;;;;;2.70;2.50;;;;;;;;;;5085998;28;24390;-50
2022/04/18 11:56:29;;;;;;;2.90;2.70;;;;;;;;;;5086072;28;24448;-50
2022/04/18 11:58:54;;;;;;;2.75;2.55;;;;;;;;;;5067941;28;24398;-50
2022/04/18 12:06:49;;;;;;;2.50;2.30;;;;;;;;;;5065808;28;24418;-50
2022/04/18 12:09:15;;;;;;;2.38;2.17;;;;;;;;;;5065835;28;24411;-51
2022/04/18 12:11:40;;;;;;;2.15;2.00;;;;;;;;;;5065769;28;24394;-51
2022/04/18 12:14:06;;;;;;;2.65;2.10;;;;;;;;;;5066026;28;24387;-51
2022/04/18 12:16:32;;;;;;;2.50;2.10;;;;;;;;;;5066316;28;24415;-50
2022/04/18 12:18:57;;;;;;;2.50;2.30;;;;;;;;;;5065226;28;24994;-50
2022/04/18 12:21:23;;;;;;;3.03;2.30;;;;;;;;;;5065811;28;24418;-50
2022/04/18 12:23:52;;;;;;;2.50;2.20;;;;;;;;;;5065321;28;24932;-51
2022/04/18 12:26:18;;;;;;;2.70;2.40;;;;;;;;;;5065165;28;24403;-50
2022/04/18 12:28:44;;;;;;;4.10;3.70;;;;;;;;;;5065685;28;24417;-50
2022/04/18 12:31:10;;;;;;;2.20;2.10;;;;;;;;;;5065685;28;25026;-50
2022/04/18 12:33:44;;;;;;;3.90;3.40;;;;;;;;;;5068957;28;24974;-51
2022/04/18 12:36:20;;;;;;;1.90;1.80;;;;;;;;;;5085387;28;24433;-49
2022/04/18 12:38:46;;;;;;;2.45;2.10;;;;;;;;;;5089590;28;24394;-49
2022/04/18 12:41:12;;;;;;;2.90;2.70;;;;;;;;;;5089526;28;24881;-50
2022/04/18 12:43:38;;;;;;;3.80;3.40;;;;;;;;;;5089566;28;24523;-50
2022/04/18 12:46:09;;;;;;;2.60;2.10;;;;;;;;;;5089304;28;24399;-50
2022/04/18 12:48:34;;;;;;;2.60;2.40;;;;;;;;;;5089559;28;24405;-50
2022/04/18 12:51:01;;;;;;;3.20;2.60;;;;;;;;;;5089352;28;24389;-50
2022/04/18 12:53:45;;;;;;;3.05;2.10;;;;;;;;;;5089326;28;24436;-50
2022/04/18 12:56:10;;;;;;;2.70;2.20;;;;;;;;;;5089231;28;24398;-50
2022/04/18 12:58:43;;;;;;;2.38;2.17;;;;;;;;;;5089013;28;24389;-50
2022/04/18 13:01:08;;;;;;;2.83;2.55;;;;;;;;;;5089139;28;24429;-50
2022/04/18 13:03:40;;;;;;;2.33;2.13;;;;;;;;;;5089152;28;24421;-50
2022/04/18 13:06:05;;;;;;;2.60;2.40;;;;;;;;;;5088902;28;24481;-51
2022/04/18 13:08:35;;;;;;;2.45;2.25;;;;;;;;;;5089012;28;24992;-51
2022/04/18 13:11:00;;;;;;;2.60;2.40;;;;;;;;;;5088951;28;24413;-51
2022/04/18 13:13:26;;;;;;;2.40;2.20;;;;;;;;;;5088953;28;24387;-51
2022/04/18 13:15:51;;;;;;;3.30;3.00;;;;;;;;;;5089010;28;24481;-51
2022/04/18 13:18:25;;;;;;;2.75;2.50;;;;;;;;;;5088924;28;24474;-51
2022/04/18 13:20:50;;;;;;;2.30;1.95;;;;;;;;;;5088790;28;24456;-50
2022/04/18 13:23:15;;;;;;;2.93;2.27;;;;;;;;;;5088995;28;24916;-51
2022/04/18 13:25:41;;;;;;;2.50;2.30;;;;;;;;;;5088471;28;24482;-51
2022/04/18 13:28:07;;;;;;;2.60;2.40;;;;;;;;;;5088225;28;24418;-50
2022/04/18 13:30:33;;;;;;;2.40;2.20;;;;;;;;;;5088584;28;24461;-50
2022/04/18 13:32:58;;;;;;;2.33;2.13;;;;;;;;;;5088164;28;24432;-50
2022/04/18 13:35:23;;;;;;;2.65;2.40;;;;;;;;;;5088630;28;24678;-51
2022/04/18 13:37:48;;;;;;;3.00;2.70;;;;;;;;;;5088649;28;24412;-51
2022/04/18 13:40:14;;;;;;;2.90;2.23;;;;;;;;;;5088517;28;24390;-51
2022/04/18 13:42:40;;;;;;;2.80;2.13;;;;;;;;;;5088126;28;24394;-49
2022/04/18 13:45:05;;;;;;;2.30;2.10;;;;;;;;;;5088222;28;24951;-50
2022/04/18 13:47:30;;;;;;;1.90;1.80;;;;;;;;;;5088334;28;24422;-50
2022/04/18 13:49:55;;;;;;;2.30;2.10;;;;;;;;;;5088077;28;24421;-49
2022/04/18 13:52:21;;;;;;;2.17;1.97;;;;;;;;;;5088307;28;24751;-50
2022/04/18 13:54:46;;;;;;;2.13;1.92;;;;;;;;;;5088209;28;24459;-50
2022/04/18 13:57:11;;;;;;;2.40;2.20;;;;;;;;;;5087680;28;24484;-49
2022/04/18 13:59:36;;;;;;;2.30;2.10;;;;;;;;;;5088252;28;24398;-49
2022/04/18 14:02:02;;;;;;;3.00;2.42;;;;;;;;;;5087739;28;24378;-50
2022/04/18 14:04:27;;;;;;;2.40;2.20;;;;;;;;;;5087810;28;24393;-50
2022/04/18 14:06:52;;;;;;;2.50;2.30;;;;;;;;;;5087953;28;25063;-49
2022/04/18 14:09:18;;;;;;;2.60;2.40;;;;;;;;;;5087755;28;24432;-49
2022/04/18 14:11:43;;;;;;;3.60;3.25;;;;;;;;;;5087627;28;24744;-49
2022/04/18 14:14:08;;;;;;;2.47;2.27;;;;;;;;;;5087838;28;24456;-51
2022/04/18 14:22:01;;;;;;;2.70;2.50;;;;;;;;;;5085973;28;24401;-50
2022/04/18 14:24:26;;;;;;;2.77;2.47;;;;;;;;;;5087379;28;24386;-49
2022/04/18 14:26:52;;;;;;;3.20;2.30;;;;;;;;;;5087168;28;24516;-50
2022/04/18 14:29:17;;;;;;;2.60;2.30;;;;;;;;;;5087546;28;24529;-49
2022/04/18 14:31:42;;;;;;;2.70;2.30;;;;;;;;;;5087475;28;24386;-49
2022/04/18 14:34:08;;;;;;;2.00;1.90;;;;;;;;;;5087400;28;24432;-49
2022/04/18 14:36:33;;;;;;;2.60;2.40;;;;;;;;;;5087307;28;24471;-49
2022/04/18 14:38:58;;;;;;;3.03;2.40;;;;;;;;;;5087206;28;24401;-50
2022/04/18 14:41:23;;;;;;;2.50;2.30;;;;;;;;;;5086860;28;24944;-51
2022/04/18 14:43:48;;;;;;;2.60;2.40;;;;;;;;;;5087583;28;24386;-49
2022/04/18 14:46:14;;;;;;;2.50;2.30;;;;;;;;;;5086911;28;24452;-50
2022/04/18 14:48:39;;;;;;;2.40;2.20;;;;;;;;;;5087425;28;24378;-49
2022/04/18 14:51:04;;;;;;;2.50;2.30;;;;;;;;;;5087337;28;24981;-49
2022/04/18 14:53:29;;;;;;;2.53;2.10;;;;;;;;;;5087037;28;24401;-49
2022/04/18 14:55:54;;;;;;;2.50;1.90;;;;;;;;;;5086162;28;24398;-50